createdAt,value
2023-07-19T00:00:29.619Z,41.30
2023-07-19T00:01:29.733Z,41.30
2023-07-19T00:02:29.788Z,41.28
2023-07-19T00:03:29.798Z,41.30
2023-07-19T00:04:29.861Z,41.32
2023-07-19T00:05:29.930Z,41.32
2023-07-19T00:06:29.940Z,41.31
2023-07-19T00:07:30.039Z,41.30
2023-07-19T00:08:30.066Z,41.31
2023-07-19T00:09:30.125Z,41.32
2023-07-19T00:10:30.170Z,41.31
2023-07-19T00:11:30.241Z,41.32
2023-07-19T00:12:36.401Z,41.30
2023-07-19T00:13:31.276Z,41.31
2023-07-19T00:14:30.255Z,41.34
2023-07-19T00:15:30.267Z,41.32
2023-07-19T00:16:30.279Z,41.34
2023-07-19T00:17:30.244Z,41.32
2023-07-19T00:18:30.244Z,41.34
2023-07-19T00:19:30.230Z,41.31
2023-07-19T00:20:30.258Z,41.33
2023-07-19T00:21:30.322Z,41.30
2023-07-19T00:22:30.263Z,41.35
2023-07-19T00:23:30.175Z,41.32
2023-07-19T00:24:30.215Z,41.32
2023-07-19T00:25:30.296Z,41.31
2023-07-19T00:26:30.305Z,41.32
2023-07-19T00:27:30.367Z,41.31
2023-07-19T00:28:30.408Z,41.29
2023-07-19T00:29:30.473Z,41.32
2023-07-19T00:30:30.506Z,41.31
2023-07-19T00:31:30.539Z,41.31
2023-07-19T00:32:30.626Z,41.31
2023-07-19T00:33:30.633Z,41.33
2023-07-19T00:34:30.747Z,41.32
2023-07-19T00:35:30.745Z,41.33
2023-07-19T00:36:30.776Z,41.31
2023-07-19T00:37:30.857Z,41.31
2023-07-19T00:38:30.898Z,41.33
2023-07-19T00:39:30.926Z,41.31
2023-07-19T00:40:30.964Z,41.31
2023-07-19T00:41:31.032Z,41.32
2023-07-19T00:42:31.064Z,41.32
2023-07-19T00:43:31.149Z,41.31
2023-07-19T00:44:31.170Z,41.35
2023-07-19T00:45:31.238Z,41.34
2023-07-19T00:46:31.360Z,41.34
2023-07-19T00:47:31.388Z,41.33
2023-07-19T00:48:31.382Z,41.34
2023-07-19T00:49:31.411Z,41.35
2023-07-19T00:50:31.455Z,41.31
2023-07-19T00:51:31.545Z,41.35
2023-07-19T00:52:31.556Z,41.34
2023-07-19T00:53:31.616Z,41.36
2023-07-19T00:54:31.654Z,41.36
2023-07-19T00:55:31.689Z,41.32
2023-07-19T00:56:31.751Z,41.33
2023-07-19T00:57:31.802Z,41.35
2023-07-19T00:58:31.841Z,41.36
2023-07-19T00:59:31.902Z,41.36
2023-07-19T01:00:31.983Z,41.33
2023-07-19T01:01:32.064Z,41.35
2023-07-19T01:02:32.106Z,41.37
2023-07-19T01:03:32.109Z,41.36
2023-07-19T01:04:32.157Z,41.35
2023-07-19T01:05:32.210Z,41.35
2023-07-19T01:06:32.261Z,41.34
2023-07-19T01:07:32.287Z,41.34
2023-07-19T01:08:32.410Z,41.36
2023-07-19T01:09:32.407Z,41.36
2023-07-19T01:10:32.451Z,41.35
2023-07-19T01:11:32.499Z,41.36
2023-07-19T01:12:32.519Z,41.34
2023-07-19T01:13:32.605Z,41.34
2023-07-19T01:14:32.627Z,41.35
2023-07-19T01:15:32.664Z,41.34
2023-07-19T01:16:32.766Z,41.34
2023-07-19T01:17:32.796Z,41.34
2023-07-19T01:18:32.844Z,41.36
2023-07-19T01:19:32.915Z,41.35
2023-07-19T01:20:32.944Z,41.36
2023-07-19T01:21:33.310Z,41.38
2023-07-19T01:22:33.089Z,41.37
2023-07-19T01:23:33.107Z,41.37
2023-07-19T01:24:33.140Z,41.37
2023-07-19T01:25:33.186Z,41.38
2023-07-19T01:26:33.243Z,41.38
2023-07-19T01:27:33.291Z,41.37
2023-07-19T01:28:33.340Z,41.37
2023-07-19T01:29:33.406Z,41.37
2023-07-19T01:30:33.443Z,41.37
2023-07-19T01:31:33.540Z,41.38
2023-07-19T01:32:33.581Z,41.36
2023-07-19T01:33:34.507Z,41.39
2023-07-19T01:34:33.624Z,41.37
2023-07-19T01:35:33.701Z,41.39
2023-07-19T01:36:33.759Z,41.38
2023-07-19T01:37:33.783Z,41.39
2023-07-19T01:38:33.850Z,41.38
2023-07-19T01:39:33.887Z,41.39
2023-07-19T01:40:33.944Z,41.37
2023-07-19T01:41:33.981Z,41.38
2023-07-19T01:42:34.095Z,41.37
2023-07-19T01:43:34.118Z,41.37
2023-07-19T01:44:34.194Z,41.38
2023-07-19T01:45:34.257Z,41.37
2023-07-19T01:46:34.283Z,41.36
2023-07-19T01:47:34.417Z,41.37
2023-07-19T01:48:34.414Z,41.38
2023-07-19T01:49:34.442Z,41.39
2023-07-19T01:50:34.463Z,41.40
2023-07-19T01:51:34.534Z,41.39
2023-07-19T01:52:34.593Z,41.40
2023-07-19T01:53:34.708Z,41.39
2023-07-19T01:54:34.706Z,41.39
2023-07-19T01:55:34.761Z,41.39
2023-07-19T01:56:34.808Z,41.39
2023-07-19T01:57:34.840Z,41.39
2023-07-19T01:58:34.889Z,41.37
2023-07-19T01:59:34.950Z,41.36
2023-07-19T02:00:35.040Z,41.40
2023-07-19T02:01:35.164Z,41.38
2023-07-19T02:02:35.314Z,41.37
2023-07-19T02:03:35.219Z,41.39
2023-07-19T02:04:35.365Z,41.40
2023-07-19T02:05:35.358Z,41.41
2023-07-19T02:06:35.329Z,41.39
2023-07-19T02:07:35.376Z,41.42
2023-07-19T02:08:35.434Z,41.39
2023-07-19T02:09:35.541Z,41.40
2023-07-19T02:10:35.522Z,41.39
2023-07-19T02:11:35.701Z,41.40
2023-07-19T02:12:35.665Z,41.38
2023-07-19T02:13:35.704Z,41.38
2023-07-19T02:14:35.783Z,41.41
2023-07-19T02:15:35.860Z,41.39
2023-07-19T02:16:35.887Z,41.40
2023-07-19T02:17:36.016Z,41.40
2023-07-19T02:18:35.968Z,41.42
2023-07-19T02:19:36.053Z,41.39
2023-07-19T02:20:36.103Z,41.40
2023-07-19T02:21:36.146Z,41.40
2023-07-19T02:22:36.332Z,41.43
2023-07-19T02:23:36.285Z,41.41
2023-07-19T02:24:36.318Z,41.41
2023-07-19T02:25:36.391Z,41.41
2023-07-19T02:26:36.437Z,41.40
2023-07-19T02:27:36.491Z,41.40
2023-07-19T02:28:36.528Z,41.41
2023-07-19T02:29:36.579Z,41.42
2023-07-19T02:30:36.665Z,41.39
2023-07-19T02:31:36.781Z,41.43
2023-07-19T02:32:36.860Z,41.43
2023-07-19T02:33:36.823Z,41.42
2023-07-19T02:34:36.851Z,41.43
2023-07-19T02:35:36.893Z,41.43
2023-07-19T02:36:36.964Z,41.42
2023-07-19T02:37:37.024Z,41.42
2023-07-19T02:38:37.063Z,41.43
2023-07-19T02:39:37.142Z,41.41
2023-07-19T02:40:37.198Z,41.41
2023-07-19T02:41:38.208Z,41.44
2023-07-19T02:42:37.315Z,41.43
2023-07-19T02:43:37.373Z,41.44
2023-07-19T02:44:37.436Z,41.44
2023-07-19T02:45:37.474Z,41.43
2023-07-19T02:46:37.584Z,41.44
2023-07-19T02:47:37.654Z,41.43
2023-07-19T02:48:37.668Z,41.43
2023-07-19T02:49:40.561Z,41.45
2023-07-19T02:50:37.714Z,41.45
2023-07-19T02:51:37.704Z,41.45
2023-07-19T02:52:37.687Z,41.43
2023-07-19T02:53:37.708Z,41.43
2023-07-19T02:54:37.644Z,41.46
2023-07-19T02:55:37.674Z,41.44
2023-07-19T02:56:37.677Z,41.45
2023-07-19T02:57:37.655Z,41.44
2023-07-19T02:58:37.654Z,41.45
2023-07-19T02:59:37.631Z,41.43
2023-07-19T03:00:37.684Z,41.46
2023-07-19T03:01:37.636Z,41.46
2023-07-19T03:02:37.706Z,41.47
2023-07-19T03:03:37.698Z,41.46
2023-07-19T03:04:37.588Z,41.44
2023-07-19T03:05:37.579Z,41.42
2023-07-19T03:06:37.600Z,41.44
2023-07-19T03:07:37.579Z,41.44
2023-07-19T03:08:37.559Z,41.44
2023-07-19T03:09:37.572Z,41.44
2023-07-19T03:10:37.579Z,41.47
2023-07-19T03:11:37.524Z,41.45
2023-07-19T03:12:37.577Z,41.45
2023-07-19T03:13:37.521Z,41.45
2023-07-19T03:14:37.532Z,41.44
2023-07-19T03:15:37.540Z,41.45
2023-07-19T03:16:37.531Z,41.45
2023-07-19T03:17:37.514Z,41.44
2023-07-19T03:18:37.501Z,41.43
2023-07-19T03:19:37.497Z,41.44
2023-07-19T03:20:37.512Z,41.44
2023-07-19T03:21:37.480Z,41.45
2023-07-19T03:22:37.480Z,41.45
2023-07-19T03:23:37.499Z,41.44
2023-07-19T03:24:37.477Z,41.43
2023-07-19T03:25:37.466Z,41.45
2023-07-19T03:26:37.465Z,41.44
2023-07-19T03:27:37.488Z,41.46
2023-07-19T03:28:37.547Z,41.45
2023-07-19T03:29:37.660Z,41.43
2023-07-19T03:30:37.728Z,41.45
2023-07-19T03:31:37.714Z,41.43
2023-07-19T03:32:37.870Z,41.47
2023-07-19T03:33:37.869Z,41.45
2023-07-19T03:34:37.900Z,41.47
2023-07-19T03:35:37.986Z,41.45
2023-07-19T03:36:38.025Z,41.44
2023-07-19T03:37:38.065Z,41.47
2023-07-19T03:38:38.126Z,41.45
2023-07-19T03:39:38.222Z,41.45
2023-07-19T03:40:38.258Z,41.44
2023-07-19T03:41:38.329Z,41.44
2023-07-19T03:42:38.398Z,41.46
2023-07-19T03:43:38.456Z,41.45
2023-07-19T03:44:38.483Z,41.48
2023-07-19T03:45:38.567Z,41.45
2023-07-19T03:46:38.738Z,41.45
2023-07-19T03:47:38.721Z,41.47
2023-07-19T03:48:38.756Z,41.46
2023-07-19T03:49:38.846Z,41.47
2023-07-19T03:50:38.871Z,41.45
2023-07-19T03:51:38.963Z,41.47
2023-07-19T03:52:38.960Z,41.44
2023-07-19T03:53:39.037Z,41.48
2023-07-19T03:54:39.097Z,41.46
2023-07-19T03:55:39.138Z,41.46
2023-07-19T03:56:39.219Z,41.49
2023-07-19T03:57:39.300Z,41.47
2023-07-19T03:58:39.348Z,41.47
2023-07-19T03:59:39.404Z,41.46
2023-07-19T04:00:39.456Z,41.47
2023-07-19T04:01:39.585Z,41.47
2023-07-19T04:02:39.648Z,41.47
2023-07-19T04:03:39.701Z,41.47
2023-07-19T04:04:39.736Z,41.48
2023-07-19T04:05:39.807Z,41.48
2023-07-19T04:06:39.834Z,41.48
2023-07-19T04:07:39.908Z,41.48
2023-07-19T04:08:39.992Z,41.49
2023-07-19T04:09:40.001Z,41.48
2023-07-19T04:10:40.069Z,41.48
2023-07-19T04:11:40.189Z,41.48
2023-07-19T04:12:40.222Z,41.47
2023-07-19T04:13:40.274Z,41.47
2023-07-19T04:14:40.423Z,41.49
2023-07-19T04:15:40.386Z,41.46
2023-07-19T04:16:40.533Z,41.48
2023-07-19T04:17:40.547Z,41.47
2023-07-19T04:18:40.671Z,41.50
2023-07-19T04:19:40.642Z,41.48
2023-07-19T04:20:40.694Z,41.50
2023-07-19T04:21:40.775Z,41.48
2023-07-19T04:22:40.866Z,41.50
2023-07-19T04:23:40.867Z,41.49
2023-07-19T04:24:40.955Z,41.50
2023-07-19T04:25:41.021Z,41.49
2023-07-19T04:26:41.090Z,41.49
2023-07-19T04:27:41.136Z,41.49
2023-07-19T04:28:41.209Z,41.48
2023-07-19T04:29:41.267Z,41.48
2023-07-19T04:30:41.353Z,41.47
2023-07-19T04:31:41.371Z,41.47
2023-07-19T04:32:41.549Z,41.48
2023-07-19T04:33:41.521Z,41.47
2023-07-19T04:34:41.581Z,41.49
2023-07-19T04:35:41.617Z,41.48
2023-07-19T04:36:41.696Z,41.48
2023-07-19T04:37:41.791Z,41.48
2023-07-19T04:38:41.823Z,41.49
2023-07-19T04:39:41.906Z,41.48
2023-07-19T04:40:41.945Z,41.49
2023-07-19T04:41:43.321Z,41.48
2023-07-19T04:42:42.030Z,41.50
2023-07-19T04:43:42.109Z,41.50
2023-07-19T04:44:42.181Z,41.49
2023-07-19T04:45:42.214Z,41.47
2023-07-19T04:46:42.356Z,41.49
2023-07-19T04:47:42.385Z,41.49
2023-07-19T04:48:42.414Z,41.48
2023-07-19T04:49:42.478Z,41.49
2023-07-19T04:50:42.546Z,41.49
2023-07-19T04:51:42.585Z,41.47
2023-07-19T04:52:42.675Z,41.48
2023-07-19T04:53:42.683Z,41.47
2023-07-19T04:54:42.752Z,41.51
2023-07-19T04:55:42.864Z,41.49
2023-07-19T04:56:42.920Z,41.48
2023-07-19T04:57:42.964Z,41.49
2023-07-19T04:58:43.009Z,41.48
2023-07-19T04:59:43.082Z,41.51
2023-07-19T05:00:43.147Z,41.49
2023-07-19T05:01:50.697Z,41.51
2023-07-19T05:02:43.223Z,41.50
2023-07-19T05:03:43.177Z,41.51
2023-07-19T05:04:43.168Z,41.50
2023-07-19T05:05:43.137Z,41.50
2023-07-19T05:06:43.159Z,41.52
2023-07-19T05:07:43.162Z,41.50
2023-07-19T05:08:43.132Z,41.54
2023-07-19T05:09:43.139Z,41.52
2023-07-19T05:10:43.123Z,41.52
2023-07-19T05:11:43.110Z,41.49
2023-07-19T05:12:43.125Z,41.52
2023-07-19T05:13:43.131Z,41.52
2023-07-19T05:14:43.092Z,41.51
2023-07-19T05:15:43.108Z,41.51
2023-07-19T05:16:43.131Z,41.54
2023-07-19T05:17:43.154Z,41.49
2023-07-19T05:18:43.079Z,41.52
2023-07-19T05:19:43.152Z,41.55
2023-07-19T05:20:43.243Z,41.52
2023-07-19T05:21:43.275Z,41.48
2023-07-19T05:22:43.395Z,41.51
2023-07-19T05:23:43.411Z,41.48
2023-07-19T05:24:43.487Z,41.48
2023-07-19T05:25:43.571Z,41.49
2023-07-19T05:26:43.637Z,41.51
2023-07-19T05:27:43.666Z,41.50
2023-07-19T05:28:43.726Z,41.49
2023-07-19T05:29:43.804Z,41.51
2023-07-19T05:30:43.849Z,41.49
2023-07-19T05:31:43.987Z,41.51
2023-07-19T05:32:44.082Z,41.50
2023-07-19T05:33:44.058Z,41.50
2023-07-19T05:34:44.112Z,41.48
2023-07-19T05:35:44.206Z,41.51
2023-07-19T05:36:44.234Z,41.49
2023-07-19T05:37:44.330Z,41.48
2023-07-19T05:38:44.367Z,41.49
2023-07-19T05:39:44.432Z,41.48
2023-07-19T05:40:44.496Z,41.50
2023-07-19T05:41:44.577Z,41.54
2023-07-19T05:42:44.602Z,41.49
2023-07-19T05:43:45.808Z,41.48
2023-07-19T05:44:44.732Z,41.51
2023-07-19T05:45:44.824Z,41.52
2023-07-19T05:46:44.879Z,41.51
2023-07-19T05:47:44.958Z,41.53
2023-07-19T05:48:44.998Z,41.51
2023-07-19T05:49:45.082Z,41.53
2023-07-19T05:50:45.127Z,41.51
2023-07-19T05:51:45.204Z,41.51
2023-07-19T05:52:45.250Z,41.51
2023-07-19T05:53:45.309Z,41.49
2023-07-19T05:54:45.616Z,41.52
2023-07-19T05:55:45.455Z,41.52
2023-07-19T05:56:45.490Z,41.51
2023-07-19T05:57:45.559Z,41.51
2023-07-19T05:58:45.642Z,41.50
2023-07-19T05:59:45.704Z,41.51
2023-07-19T06:00:45.796Z,41.51
2023-07-19T06:01:45.953Z,41.52
2023-07-19T06:02:53.552Z,41.49
2023-07-19T06:03:47.013Z,41.51
2023-07-19T06:04:45.948Z,41.50
2023-07-19T06:05:45.866Z,41.51
2023-07-19T06:06:45.881Z,41.52
2023-07-19T06:07:45.842Z,41.51
2023-07-19T06:08:45.871Z,41.48
2023-07-19T06:09:45.853Z,41.50
2023-07-19T06:10:45.830Z,41.47
2023-07-19T06:11:45.855Z,41.47
2023-07-19T06:12:45.833Z,41.48
2023-07-19T06:13:45.892Z,41.48
2023-07-19T06:14:45.958Z,41.48
2023-07-19T06:15:46.110Z,41.48
2023-07-19T06:16:46.088Z,41.48
2023-07-19T06:17:46.155Z,41.48
2023-07-19T06:18:46.273Z,41.47
2023-07-19T06:19:46.276Z,41.45
2023-07-19T06:20:46.356Z,41.46
2023-07-19T06:21:46.424Z,41.44
2023-07-19T06:22:46.516Z,41.44
2023-07-19T06:23:46.560Z,41.45
2023-07-19T06:24:46.615Z,41.44
2023-07-19T06:25:46.671Z,41.48
2023-07-19T06:26:46.720Z,41.45
2023-07-19T06:27:46.817Z,41.44
2023-07-19T06:28:46.875Z,41.44
2023-07-19T06:29:46.899Z,41.43
2023-07-19T06:30:47.012Z,41.44
2023-07-19T06:31:47.132Z,41.41
2023-07-19T06:32:47.131Z,41.43
2023-07-19T06:33:47.168Z,41.43
2023-07-19T06:34:47.230Z,41.41
2023-07-19T06:35:47.304Z,41.43
2023-07-19T06:36:47.360Z,41.40
2023-07-19T06:37:47.422Z,41.42
2023-07-19T06:38:47.493Z,41.40
2023-07-19T06:39:47.589Z,41.41
2023-07-19T06:40:47.605Z,41.41
2023-07-19T06:41:47.647Z,41.43
2023-07-19T06:42:47.749Z,41.42
2023-07-19T06:43:47.797Z,41.40
2023-07-19T06:44:47.824Z,41.39
2023-07-19T06:45:47.890Z,41.39
2023-07-19T06:46:47.978Z,41.36
2023-07-19T06:47:48.046Z,41.34
2023-07-19T06:48:48.120Z,41.36
2023-07-19T06:49:48.151Z,41.37
2023-07-19T06:50:48.189Z,41.34
2023-07-19T06:51:48.279Z,41.32
2023-07-19T06:52:48.320Z,41.32
2023-07-19T06:53:53.013Z,41.32
2023-07-19T06:54:49.373Z,41.30
2023-07-19T06:55:48.376Z,41.32
2023-07-19T06:56:48.408Z,41.29
2023-07-19T06:57:48.398Z,41.31
2023-07-19T06:58:48.351Z,41.36
2023-07-19T06:59:48.352Z,41.34
2023-07-19T07:00:48.364Z,41.35
2023-07-19T07:01:48.359Z,41.33
2023-07-19T07:02:48.411Z,41.36
2023-07-19T07:03:48.352Z,41.32
2023-07-19T07:04:48.287Z,41.32
2023-07-19T07:05:48.369Z,41.33
2023-07-19T07:06:48.435Z,41.30
2023-07-19T07:07:48.466Z,41.31
2023-07-19T07:08:48.526Z,41.35
2023-07-19T07:09:48.660Z,41.33
2023-07-19T07:10:48.675Z,41.35
2023-07-19T07:11:48.725Z,41.36
2023-07-19T07:12:48.729Z,41.35
2023-07-19T07:13:48.816Z,41.38
2023-07-19T07:14:50.963Z,41.41
2023-07-19T07:15:48.906Z,41.41
2023-07-19T07:16:48.990Z,41.42
2023-07-19T07:17:49.177Z,41.40
2023-07-19T07:18:49.057Z,41.36
2023-07-19T07:19:49.107Z,41.37
2023-07-19T07:20:49.197Z,41.36
2023-07-19T07:21:49.253Z,41.35
2023-07-19T07:22:49.317Z,41.33
2023-07-19T07:23:49.339Z,41.30
2023-07-19T07:24:49.384Z,41.29
2023-07-19T07:25:49.427Z,41.27
2023-07-19T07:26:49.484Z,41.26
2023-07-19T07:27:49.504Z,41.27
2023-07-19T07:28:49.595Z,41.26
2023-07-19T07:29:49.607Z,41.27
2023-07-19T07:30:49.706Z,41.27
2023-07-19T07:31:49.707Z,41.28
2023-07-19T07:32:49.806Z,41.27
2023-07-19T07:33:49.820Z,41.28
2023-07-19T07:34:49.845Z,41.27
2023-07-19T07:35:49.915Z,41.29
2023-07-19T07:36:49.954Z,41.31
2023-07-19T07:37:49.977Z,41.30
2023-07-19T07:38:50.028Z,41.29
2023-07-19T07:39:50.090Z,41.32
2023-07-19T07:40:50.118Z,41.30
2023-07-19T07:41:50.172Z,41.29
2023-07-19T07:42:50.226Z,41.32
2023-07-19T07:43:50.298Z,41.29
2023-07-19T07:44:50.329Z,41.29
2023-07-19T07:45:50.368Z,41.33
2023-07-19T07:46:50.487Z,41.29
2023-07-19T07:47:50.508Z,41.30
2023-07-19T07:48:50.509Z,41.30
2023-07-19T07:49:50.544Z,41.31
2023-07-19T07:50:50.608Z,41.32
2023-07-19T07:51:50.649Z,41.32
2023-07-19T07:53:02.379Z,41.35
2023-07-19T07:53:51.730Z,41.37
2023-07-19T07:54:50.719Z,41.36
2023-07-19T07:55:50.685Z,41.36
2023-07-19T07:56:50.691Z,41.38
2023-07-19T07:57:50.700Z,41.40
2023-07-19T07:58:50.676Z,41.41
2023-07-19T07:59:50.656Z,41.43
2023-07-19T08:00:50.728Z,41.47
2023-07-19T08:01:50.651Z,41.43
2023-07-19T08:02:50.723Z,41.47
2023-07-19T08:03:50.668Z,41.50
2023-07-19T08:04:50.629Z,41.53
2023-07-19T08:05:50.682Z,41.53
2023-07-19T08:06:50.720Z,41.53
2023-07-19T08:07:50.767Z,41.57
2023-07-19T08:08:50.842Z,41.57
2023-07-19T08:09:50.887Z,41.58
2023-07-19T08:10:50.936Z,41.58
2023-07-19T08:11:50.980Z,41.62
2023-07-19T08:12:51.046Z,41.63
2023-07-19T08:13:51.070Z,41.61
2023-07-19T08:14:51.123Z,41.63
2023-07-19T08:15:51.185Z,41.62
2023-07-19T08:16:51.288Z,41.59
2023-07-19T08:17:51.319Z,41.58
2023-07-19T08:18:51.324Z,41.55
2023-07-19T08:19:51.419Z,41.52
2023-07-19T08:20:51.422Z,41.50
2023-07-19T08:21:51.489Z,41.51
2023-07-19T08:22:51.553Z,41.48
2023-07-19T08:23:51.596Z,41.45
2023-07-19T08:24:51.638Z,41.44
2023-07-19T08:25:51.683Z,41.42
2023-07-19T08:26:51.760Z,41.41
2023-07-19T08:27:51.764Z,41.37
2023-07-19T08:28:51.812Z,41.33
2023-07-19T08:29:51.932Z,41.31
2023-07-19T08:30:51.992Z,41.26
2023-07-19T08:31:51.939Z,41.27
2023-07-19T08:32:52.093Z,41.22
2023-07-19T08:33:52.077Z,41.23
2023-07-19T08:34:52.093Z,41.25
2023-07-19T08:35:52.172Z,41.28
2023-07-19T08:36:52.171Z,41.28
2023-07-19T08:37:52.225Z,41.30
2023-07-19T08:38:52.247Z,41.30
2023-07-19T08:39:52.290Z,41.33
2023-07-19T08:40:52.306Z,41.32
2023-07-19T08:41:52.360Z,41.32
2023-07-19T08:42:52.374Z,41.32
2023-07-19T08:43:52.419Z,41.31
2023-07-19T08:44:52.457Z,41.32
2023-07-19T08:45:52.595Z,41.33
2023-07-19T08:46:52.566Z,41.32
2023-07-19T08:47:52.544Z,41.32
2023-07-19T08:48:52.596Z,41.34
2023-07-19T08:49:52.673Z,41.32
2023-07-19T08:50:52.659Z,41.34
2023-07-19T08:51:52.688Z,41.34
2023-07-19T08:52:52.747Z,41.35
2023-07-19T08:53:52.786Z,41.36
2023-07-19T08:54:52.814Z,41.38
2023-07-19T08:55:52.868Z,41.40
2023-07-19T08:56:52.970Z,41.38
2023-07-19T08:57:52.907Z,41.39
2023-07-19T08:58:52.940Z,41.40
2023-07-19T08:59:52.992Z,41.41
2023-07-19T09:00:53.039Z,41.42
2023-07-19T09:01:53.089Z,41.44
2023-07-19T09:02:53.182Z,41.46
2023-07-19T09:03:53.185Z,41.46
2023-07-19T09:04:53.151Z,41.48
2023-07-19T09:05:53.269Z,41.50
2023-07-19T09:06:53.248Z,41.52
2023-07-19T09:07:53.297Z,41.50
2023-07-19T09:08:53.343Z,41.50
2023-07-19T09:09:53.364Z,41.53
2023-07-19T09:10:53.405Z,41.55
2023-07-19T09:11:53.494Z,41.53
2023-07-19T09:12:53.511Z,41.52
2023-07-19T09:13:53.542Z,41.55
2023-07-19T09:14:53.611Z,41.54
2023-07-19T09:15:53.654Z,41.52
2023-07-19T09:16:53.683Z,41.58
2023-07-19T09:17:53.793Z,41.59
2023-07-19T09:18:53.914Z,41.57
2023-07-19T09:19:53.831Z,41.60
2023-07-19T09:20:53.897Z,41.61
2023-07-19T09:21:53.913Z,41.59
2023-07-19T09:22:54.047Z,41.57
2023-07-19T09:23:54.022Z,41.58
2023-07-19T09:24:54.052Z,41.59
2023-07-19T09:25:54.094Z,41.61
2023-07-19T09:26:54.196Z,41.62
2023-07-19T09:27:54.212Z,41.62
2023-07-19T09:28:54.252Z,41.61
2023-07-19T09:29:54.279Z,41.61
2023-07-19T09:30:54.327Z,41.60
2023-07-19T09:31:54.465Z,41.59
2023-07-19T09:32:54.426Z,41.54
2023-07-19T09:33:54.461Z,41.52
2023-07-19T09:34:54.494Z,41.50
2023-07-19T09:35:54.545Z,41.48
2023-07-19T09:36:54.560Z,41.47
2023-07-19T09:37:54.610Z,41.43
2023-07-19T09:38:54.795Z,41.43
2023-07-19T09:39:54.668Z,41.42
2023-07-19T09:40:54.701Z,41.40
2023-07-19T09:41:54.747Z,41.38
2023-07-19T09:42:54.771Z,41.38
2023-07-19T09:43:54.787Z,41.33
2023-07-19T09:44:54.880Z,41.34
2023-07-19T09:45:54.872Z,41.33
2023-07-19T09:46:54.881Z,41.33
2023-07-19T09:47:54.967Z,41.33
2023-07-19T09:48:54.956Z,41.31
2023-07-19T09:49:54.961Z,41.27
2023-07-19T09:50:55.000Z,41.28
2023-07-19T09:51:54.993Z,41.27
2023-07-19T09:52:55.027Z,41.23
2023-07-19T09:53:55.028Z,41.23
2023-07-19T09:54:55.086Z,41.18
2023-07-19T09:55:55.065Z,41.17
2023-07-19T09:56:55.059Z,41.16
2023-07-19T09:57:55.074Z,41.14
2023-07-19T09:58:55.079Z,41.10
2023-07-19T09:59:55.107Z,41.11
2023-07-19T10:00:55.112Z,41.08
2023-07-19T10:01:55.155Z,41.06
2023-07-19T10:02:55.174Z,41.02
2023-07-19T10:03:55.115Z,41.02
2023-07-19T10:04:55.120Z,40.99
2023-07-19T10:05:55.203Z,40.99
2023-07-19T10:06:55.114Z,40.99
2023-07-19T10:07:55.129Z,40.96
2023-07-19T10:08:55.131Z,40.96
2023-07-19T10:09:55.134Z,40.99
2023-07-19T10:10:55.125Z,40.95
2023-07-19T10:11:55.144Z,40.95
2023-07-19T10:12:55.153Z,40.92
2023-07-19T10:14:05.940Z,40.92
2023-07-19T10:14:56.127Z,40.92
2023-07-19T10:15:55.122Z,40.90
2023-07-19T10:16:55.134Z,40.93
2023-07-19T10:17:55.207Z,40.91
2023-07-19T10:18:55.095Z,40.90
2023-07-19T10:19:55.088Z,40.88
2023-07-19T10:20:57.269Z,40.86
2023-07-19T10:21:55.124Z,40.87
2023-07-19T10:22:55.207Z,40.85
2023-07-19T10:23:55.088Z,40.86
2023-07-19T10:24:55.057Z,40.83
2023-07-19T10:25:55.050Z,40.83
2023-07-19T10:26:55.049Z,40.81
2023-07-19T10:27:55.065Z,40.85
2023-07-19T10:28:55.079Z,40.82
2023-07-19T10:29:55.019Z,40.81
2023-07-19T10:30:55.062Z,40.80
2023-07-19T10:31:55.014Z,40.80
2023-07-19T10:32:55.044Z,40.80
2023-07-19T10:33:55.146Z,40.78
2023-07-19T10:34:54.997Z,40.77
2023-07-19T10:35:55.031Z,40.75
2023-07-19T10:36:55.010Z,40.76
2023-07-19T10:37:54.986Z,40.77
2023-07-19T10:38:55.005Z,40.75
2023-07-19T10:39:54.977Z,40.73
2023-07-19T10:40:54.947Z,40.74
2023-07-19T10:41:54.954Z,40.73
2023-07-19T10:42:54.958Z,40.72
2023-07-19T10:43:55.169Z,40.73
2023-07-19T10:44:54.931Z,40.74
2023-07-19T10:45:54.966Z,40.72
2023-07-19T10:46:54.940Z,40.73
2023-07-19T10:47:54.970Z,40.74
2023-07-19T10:48:55.009Z,40.76
2023-07-19T10:49:54.929Z,40.74
2023-07-19T10:50:54.868Z,40.74
2023-07-19T10:51:54.907Z,40.72
2023-07-19T10:52:54.876Z,40.72
2023-07-19T10:53:54.890Z,40.72
2023-07-19T10:55:02.142Z,40.71
2023-07-19T10:55:55.865Z,40.74
2023-07-19T10:56:54.881Z,40.73
2023-07-19T10:57:54.865Z,40.71
2023-07-19T10:58:54.851Z,40.68
2023-07-19T10:59:54.844Z,40.69
2023-07-19T11:00:54.871Z,40.70
2023-07-19T11:01:54.801Z,40.71
2023-07-19T11:02:54.935Z,40.70
2023-07-19T11:03:54.892Z,40.70
2023-07-19T11:04:54.953Z,40.70
2023-07-19T11:05:55.021Z,40.69
2023-07-19T11:06:55.069Z,40.70
2023-07-19T11:07:55.137Z,40.67
2023-07-19T11:08:55.204Z,40.66
2023-07-19T11:09:55.244Z,40.67
2023-07-19T11:10:55.357Z,40.67
2023-07-19T11:11:55.410Z,40.67
2023-07-19T11:12:55.433Z,40.68
2023-07-19T11:13:55.509Z,40.69
2023-07-19T11:14:55.553Z,40.69
2023-07-19T11:15:55.643Z,40.70
2023-07-19T11:16:55.720Z,40.67
2023-07-19T11:17:55.783Z,40.68
2023-07-19T11:18:55.825Z,40.69
2023-07-19T11:19:55.865Z,40.70
2023-07-19T11:20:55.962Z,40.70
2023-07-19T11:21:55.994Z,40.74
2023-07-19T11:22:56.092Z,40.72
2023-07-19T11:23:56.101Z,40.73
2023-07-19T11:24:56.199Z,40.73
2023-07-19T11:25:56.210Z,40.77
2023-07-19T11:26:56.273Z,40.77
2023-07-19T11:27:56.324Z,40.74
2023-07-19T11:28:56.392Z,40.76
2023-07-19T11:29:56.460Z,40.75
2023-07-19T11:30:56.500Z,40.75
2023-07-19T11:31:56.544Z,40.75
2023-07-19T11:32:56.703Z,40.76
2023-07-19T11:33:56.759Z,40.75
2023-07-19T11:34:56.826Z,40.77
2023-07-19T11:35:56.834Z,40.77
2023-07-19T11:36:56.862Z,40.79
2023-07-19T11:37:56.947Z,40.79
2023-07-19T11:38:57.001Z,40.79
2023-07-19T11:39:57.060Z,40.80
2023-07-19T11:40:57.134Z,40.82
2023-07-19T11:41:57.180Z,40.81
2023-07-19T11:42:57.260Z,40.85
2023-07-19T11:43:57.314Z,40.83
2023-07-19T11:44:57.371Z,40.88
2023-07-19T11:45:57.443Z,40.86
2023-07-19T11:46:57.497Z,40.86
2023-07-19T11:47:57.585Z,40.87
2023-07-19T11:48:57.699Z,40.90
2023-07-19T11:49:57.693Z,40.90
2023-07-19T11:50:57.727Z,40.88
2023-07-19T11:51:57.790Z,40.88
2023-07-19T11:52:57.889Z,40.91
2023-07-19T11:53:58.083Z,40.90
2023-07-19T11:54:57.971Z,40.90
2023-07-19T11:56:58.053Z,40.91
2023-07-19T11:57:58.050Z,40.94
2023-07-19T11:58:58.060Z,40.93
2023-07-19T11:59:58.046Z,40.96
2023-07-19T12:00:58.064Z,40.96
2023-07-19T12:01:58.028Z,40.96
2023-07-19T12:02:58.137Z,40.94
2023-07-19T12:03:58.074Z,40.98
2023-07-19T12:04:57.998Z,40.96
2023-07-19T12:05:57.993Z,40.97
2023-07-19T12:06:57.965Z,41.00
2023-07-19T12:07:58.001Z,40.99
2023-07-19T12:08:58.019Z,41.01
2023-07-19T12:09:57.973Z,41.00
2023-07-19T12:10:57.943Z,41.02
2023-07-19T12:11:57.967Z,41.02
2023-07-19T12:12:57.951Z,41.04
2023-07-19T12:13:57.957Z,41.00
2023-07-19T12:14:57.909Z,41.03
2023-07-19T12:15:57.923Z,41.05
2023-07-19T12:16:57.977Z,41.05
2023-07-19T12:17:58.009Z,41.06
2023-07-19T12:18:57.925Z,41.07
2023-07-19T12:19:57.915Z,41.08
2023-07-19T12:20:57.932Z,41.06
2023-07-19T12:21:57.901Z,41.08
2023-07-19T12:22:57.970Z,41.08
2023-07-19T12:23:59.374Z,41.08
2023-07-19T12:24:57.898Z,41.09
2023-07-19T12:25:57.848Z,41.09
2023-07-19T12:26:57.875Z,41.11
2023-07-19T12:27:57.890Z,41.12
2023-07-19T12:28:57.912Z,41.14
2023-07-19T12:30:01.272Z,41.13
2023-07-19T12:30:58.876Z,41.13
2023-07-19T12:31:57.829Z,41.14
2023-07-19T12:32:57.894Z,41.16
2023-07-19T12:33:57.860Z,41.15
2023-07-19T12:34:57.808Z,41.19
2023-07-19T12:35:57.811Z,41.20
2023-07-19T12:36:57.782Z,41.21
2023-07-19T12:37:57.814Z,41.18
2023-07-19T12:38:57.848Z,41.21
2023-07-19T12:39:57.938Z,41.19
2023-07-19T12:40:57.992Z,41.20
2023-07-19T12:41:58.045Z,41.20
2023-07-19T12:42:58.089Z,41.22
2023-07-19T12:43:58.177Z,41.22
2023-07-19T12:44:58.228Z,41.24
2023-07-19T12:45:58.322Z,41.24
2023-07-19T12:46:58.391Z,41.26
2023-07-19T12:47:58.435Z,41.29
2023-07-19T12:48:58.463Z,41.25
2023-07-19T12:49:58.486Z,41.27
2023-07-19T12:50:58.584Z,41.27
2023-07-19T12:51:58.633Z,41.28
2023-07-19T12:52:58.713Z,41.29
2023-07-19T12:53:58.732Z,41.31